EKSB/SGD METAR and TAF weather

Enter ICAO airport designator
Station Type Date Time Source
EKSB METAR 2018/10/16 21:20 UTC NOAA

EKSB 162120Z AUTO 15004KT 2200NDV BR FEW150/// 14/13 Q1018


Station Type Date Time Source
EKSB Decoded METAR 2018/10/16 21:20 UTC NOAA

Soenderborg Lufthavn, Denmark (EKSB) 54-58N 009-47E 14M
Oct 16, 2018 - 05:20 PM EDT / 2018.10.16 2120 UTC
Wind: from the SSE (150 degrees) at 5 MPH (4 KT):0
Sky conditions: mostly clear
Weather: mist
Temperature: 57 F (14 C)
Dew Point: 55 F (13 C)
Relative Humidity: 93%
Pressure (altimeter): 30.06 in. Hg (1018 hPa)
ob: EKSB 162120Z AUTO 15004KT 2200NDV BR FEW150/// 14/13 Q1018
cycle: 21

Station Type Date Time Source
EKSB TAF 2016/01/27 09:03 UTC NOAA

TAF TAF EKSB 270856Z 2709/2721 23022KT 5000 -RA BR BKN008
TEMPO 2709/2721 24025G40KT 2000 RADZ BKN004


Example: see airport list